sensor_id;sensor_type;location;lat;lon;timestamp;pressure;altitude;pressure_sealevel;temperature;humidity
16793;BME280;8513;42.662;23.350;2023-12-20T00:00:20;95284.56;;;1.94;69.33
16793;BME280;8513;42.662;23.350;2023-12-20T00:02:46;95277.50;;;1.53;70.04
16793;BME280;8513;42.662;23.350;2023-12-20T00:05:13;95260.50;;;1.63;69.85
16793;BME280;8513;42.662;23.350;2023-12-20T00:07:39;95265.94;;;1.73;69.69
16793;BME280;8513;42.662;23.350;2023-12-20T00:10:05;95257.16;;;1.75;69.53
16793;BME280;8513;42.662;23.350;2023-12-20T00:12:30;95257.72;;;1.81;69.56
16793;BME280;8513;42.662;23.350;2023-12-20T00:14:56;95252.53;;;1.81;70.08
16793;BME280;8513;42.662;23.350;2023-12-20T00:17:21;95255.59;;;1.87;69.85
16793;BME280;8513;42.662;23.350;2023-12-20T00:19:46;95254.28;;;1.94;69.22
16793;BME280;8513;42.662;23.350;2023-12-20T00:22:12;95252.69;;;1.92;68.73
16793;BME280;8513;42.662;23.350;2023-12-20T00:24:37;95254.47;;;1.77;69.22
16793;BME280;8513;42.662;23.350;2023-12-20T00:27:03;95247.78;;;1.73;69.23
16793;BME280;8513;42.662;23.350;2023-12-20T00:29:28;95235.84;;;1.70;69.20
16793;BME280;8513;42.662;23.350;2023-12-20T00:31:54;95241.41;;;1.79;68.94
16793;BME280;8513;42.662;23.350;2023-12-20T00:34:19;95239.00;;;1.75;69.09
16793;BME280;8513;42.662;23.350;2023-12-20T00:36:44;95238.81;;;1.64;69.31
16793;BME280;8513;42.662;23.350;2023-12-20T00:39:10;95227.31;;;1.68;69.63
16793;BME280;8513;42.662;23.350;2023-12-20T00:41:35;95225.22;;;1.75;69.44
16793;BME280;8513;42.662;23.350;2023-12-20T00:44:01;95219.19;;;1.74;69.63
16793;BME280;8513;42.662;23.350;2023-12-20T00:46:26;95215.56;;;1.63;69.18
16793;BME280;8513;42.662;23.350;2023-12-20T00:48:51;95217.88;;;1.39;70.53
16793;BME280;8513;42.662;23.350;2023-12-20T00:51:17;95214.50;;;1.52;70.20
16793;BME280;8513;42.662;23.350;2023-12-20T00:53:42;95206.22;;;1.60;70.11
16793;BME280;8513;42.662;23.350;2023-12-20T00:56:08;95201.41;;;1.54;70.21
16793;BME280;8513;42.662;23.350;2023-12-20T00:58:34;95215.31;;;1.67;70.01
16793;BME280;8513;42.662;23.350;2023-12-20T01:00:59;95206.44;;;1.71;69.92
16793;BME280;8513;42.662;23.350;2023-12-20T01:03:24;95203.44;;;1.77;70.09
16793;BME280;8513;42.662;23.350;2023-12-20T01:05:50;95201.31;;;1.70;70.11
16793;BME280;8513;42.662;23.350;2023-12-20T01:08:15;95187.53;;;1.69;70.00
16793;BME280;8513;42.662;23.350;2023-12-20T01:10:41;95184.19;;;1.67;69.95
16793;BME280;8513;42.662;23.350;2023-12-20T01:13:06;95191.53;;;1.61;69.65
16793;BME280;8513;42.662;23.350;2023-12-20T01:15:32;95189.03;;;1.59;69.43
16793;BME280;8513;42.662;23.350;2023-12-20T01:17:57;95185.97;;;1.24;70.25
16793;BME280;8513;42.662;23.350;2023-12-20T01:20:24;95186.50;;;1.15;70.27
16793;BME280;8513;42.662;23.350;2023-12-20T01:22:50;95177.06;;;1.14;70.24
16793;BME280;8513;42.662;23.350;2023-12-20T01:25:15;95178.81;;;1.13;70.07
16793;BME280;8513;42.662;23.350;2023-12-20T01:27:40;95169.22;;;1.29;69.71
16793;BME280;8513;42.662;23.350;2023-12-20T01:30:07;95156.81;;;1.49;68.97
16793;BME280;8513;42.662;23.350;2023-12-20T01:32:32;95165.16;;;1.40;68.93
16793;BME280;8513;42.662;23.350;2023-12-20T01:34:57;95158.47;;;1.36;69.25
16793;BME280;8513;42.662;23.350;2023-12-20T01:37:23;95164.22;;;1.41;69.19
16793;BME280;8513;42.662;23.350;2023-12-20T01:39:50;95155.53;;;1.42;69.03
16793;BME280;8513;42.662;23.350;2023-12-20T01:42:16;95156.16;;;1.45;69.06
16793;BME280;8513;42.662;23.350;2023-12-20T01:44:41;95156.25;;;1.44;69.02
16793;BME280;8513;42.662;23.350;2023-12-20T01:47:07;95143.75;;;1.36;69.66
16793;BME280;8513;42.662;23.350;2023-12-20T01:49:33;95143.47;;;1.41;69.83
16793;BME280;8513;42.662;23.350;2023-12-20T01:51:58;95132.22;;;1.42;70.05
16793;BME280;8513;42.662;23.350;2023-12-20T01:54:24;95129.63;;;1.42;70.06
16793;BME280;8513;42.662;23.350;2023-12-20T01:56:50;95135.72;;;1.41;69.80
16793;BME280;8513;42.662;23.350;2023-12-20T01:59:17;95128.31;;;1.35;70.20
16793;BME280;8513;42.662;23.350;2023-12-20T02:01:43;95131.00;;;1.33;70.26
16793;BME280;8513;42.662;23.350;2023-12-20T02:04:08;95120.00;;;1.29;69.92
16793;BME280;8513;42.662;23.350;2023-12-20T02:06:34;95115.53;;;1.17;70.36
16793;BME280;8513;42.662;23.350;2023-12-20T02:08:59;95120.53;;;1.20;70.00
16793;BME280;8513;42.662;23.350;2023-12-20T02:11:26;95114.34;;;1.08;70.38
16793;BME280;8513;42.662;23.350;2023-12-20T02:13:51;95109.91;;;1.10;69.78
16793;BME280;8513;42.662;23.350;2023-12-20T02:16:17;95105.56;;;1.11;69.65
16793;BME280;8513;42.662;23.350;2023-12-20T02:18:43;95107.78;;;1.17;70.05
16793;BME280;8513;42.662;23.350;2023-12-20T02:21:10;95104.34;;;1.17;69.71
16793;BME280;8513;42.662;23.350;2023-12-20T02:23:35;95099.38;;;1.14;70.23
16793;BME280;8513;42.662;23.350;2023-12-20T02:26:01;95100.56;;;1.22;69.80
16793;BME280;8513;42.662;23.350;2023-12-20T02:28:27;95096.50;;;1.18;69.71
16793;BME280;8513;42.662;23.350;2023-12-20T02:30:53;95097.25;;;1.06;69.43
16793;BME280;8513;42.662;23.350;2023-12-20T02:33:18;95092.63;;;0.97;69.74
16793;BME280;8513;42.662;23.350;2023-12-20T02:35:43;95090.97;;;1.10;69.43
16793;BME280;8513;42.662;23.350;2023-12-20T02:38:09;95086.06;;;1.05;69.53
16793;BME280;8513;42.662;23.350;2023-12-20T02:40:34;95086.81;;;1.07;69.42
16793;BME280;8513;42.662;23.350;2023-12-20T02:43:00;95078.75;;;0.98;70.03
16793;BME280;8513;42.662;23.350;2023-12-20T02:45:26;95074.84;;;1.19;68.81
16793;BME280;8513;42.662;23.350;2023-12-20T02:47:52;95083.31;;;0.64;70.75
16793;BME280;8513;42.662;23.350;2023-12-20T02:50:17;95088.53;;;0.78;70.32
16793;BME280;8513;42.662;23.350;2023-12-20T02:52:45;95074.66;;;0.79;70.39
16793;BME280;8513;42.662;23.350;2023-12-20T02:55:11;95087.25;;;1.00;69.67
16793;BME280;8513;42.662;23.350;2023-12-20T02:57:36;95080.41;;;0.99;69.54
16793;BME280;8513;42.662;23.350;2023-12-20T03:00:09;95079.94;;;0.92;69.12
16793;BME280;8513;42.662;23.350;2023-12-20T03:02:36;95079.56;;;0.84;69.01
16793;BME280;8513;42.662;23.350;2023-12-20T03:05:02;95080.50;;;0.83;68.64
16793;BME280;8513;42.662;23.350;2023-12-20T03:07:28;95074.28;;;0.85;68.35
16793;BME280;8513;42.662;23.350;2023-12-20T03:09:53;95080.31;;;0.86;68.43
16793;BME280;8513;42.662;23.350;2023-12-20T03:12:18;95075.78;;;0.75;68.97
16793;BME280;8513;42.662;23.350;2023-12-20T03:14:44;95076.22;;;0.96;68.55
16793;BME280;8513;42.662;23.350;2023-12-20T03:17:10;95073.75;;;0.80;68.90
16793;BME280;8513;42.662;23.350;2023-12-20T03:19:37;95064.69;;;0.73;68.76
16793;BME280;8513;42.662;23.350;2023-12-20T03:22:02;95062.53;;;0.80;68.65
16793;BME280;8513;42.662;23.350;2023-12-20T03:24:28;95074.47;;;0.82;68.75
16793;BME280;8513;42.662;23.350;2023-12-20T03:26:53;95071.81;;;0.84;68.46
16793;BME280;8513;42.662;23.350;2023-12-20T03:29:19;95062.91;;;0.88;68.34
16793;BME280;8513;42.662;23.350;2023-12-20T03:31:44;95055.34;;;0.71;68.61
16793;BME280;8513;42.662;23.350;2023-12-20T03:34:10;95060.50;;;0.56;69.38
16793;BME280;8513;42.662;23.350;2023-12-20T03:36:36;95053.94;;;0.65;68.64
16793;BME280;8513;42.662;23.350;2023-12-20T03:39:01;95061.59;;;0.66;68.72
16793;BME280;8513;42.662;23.350;2023-12-20T03:41:28;95059.31;;;0.76;68.33
16793;BME280;8513;42.662;23.350;2023-12-20T03:43:53;95055.72;;;0.64;68.23
16793;BME280;8513;42.662;23.350;2023-12-20T03:46:18;95057.63;;;0.61;68.73
16793;BME280;8513;42.662;23.350;2023-12-20T03:48:44;95052.13;;;0.67;68.62
16793;BME280;8513;42.662;23.350;2023-12-20T03:51:09;95053.69;;;0.70;68.50
16793;BME280;8513;42.662;23.350;2023-12-20T03:53:35;95050.81;;;0.74;67.98
16793;BME280;8513;42.662;23.350;2023-12-20T03:56:00;95048.31;;;0.73;68.29
16793;BME280;8513;42.662;23.350;2023-12-20T03:58:26;95044.53;;;0.78;67.96
16793;BME280;8513;42.662;23.350;2023-12-20T04:00:51;95044.81;;;0.74;67.90
16793;BME280;8513;42.662;23.350;2023-12-20T04:03:17;95037.78;;;0.76;67.74
16793;BME280;8513;42.662;23.350;2023-12-20T04:05:42;95040.91;;;0.66;68.54
16793;BME280;8513;42.662;23.350;2023-12-20T04:08:09;95038.63;;;0.76;68.51
16793;BME280;8513;42.662;23.350;2023-12-20T04:10:34;95042.22;;;0.74;68.34
16793;BME280;8513;42.662;23.350;2023-12-20T04:13:00;95029.84;;;0.64;67.96
16793;BME280;8513;42.662;23.350;2023-12-20T04:15:25;95023.34;;;0.57;68.45
16793;BME280;8513;42.662;23.350;2023-12-20T04:17:51;95023.91;;;0.62;68.14
16793;BME280;8513;42.662;23.350;2023-12-20T04:20:16;95024.00;;;0.61;68.53
16793;BME280;8513;42.662;23.350;2023-12-20T04:22:42;95015.59;;;0.57;68.37
16793;BME280;8513;42.662;23.350;2023-12-20T04:25:08;95021.31;;;0.62;68.57
16793;BME280;8513;42.662;23.350;2023-12-20T04:27:33;95021.50;;;0.59;68.11
16793;BME280;8513;42.662;23.350;2023-12-20T04:29:59;95016.97;;;0.49;68.23
16793;BME280;8513;42.662;23.350;2023-12-20T04:32:24;95013.63;;;0.47;68.22
16793;BME280;8513;42.662;23.350;2023-12-20T04:34:50;95001.72;;;0.44;68.12
16793;BME280;8513;42.662;23.350;2023-12-20T04:37:15;95006.91;;;0.44;68.34
16793;BME280;8513;42.662;23.350;2023-12-20T04:39:41;95008.91;;;0.53;68.25
16793;BME280;8513;42.662;23.350;2023-12-20T04:42:07;95001.47;;;0.49;68.54
16793;BME280;8513;42.662;23.350;2023-12-20T04:44:32;95003.47;;;0.58;67.93
16793;BME280;8513;42.662;23.350;2023-12-20T04:46:57;95002.00;;;0.54;68.12
16793;BME280;8513;42.662;23.350;2023-12-20T04:49:23;94997.66;;;0.54;68.33
16793;BME280;8513;42.662;23.350;2023-12-20T04:51:48;95001.53;;;0.47;68.03
16793;BME280;8513;42.662;23.350;2023-12-20T04:54:14;94991.38;;;0.44;67.93
16793;BME280;8513;42.662;23.350;2023-12-20T04:56:39;94995.22;;;0.37;68.61
16793;BME280;8513;42.662;23.350;2023-12-20T04:59:05;94987.78;;;0.32;68.23
16793;BME280;8513;42.662;23.350;2023-12-20T05:01:31;95000.50;;;0.35;68.21
16793;BME280;8513;42.662;23.350;2023-12-20T05:03:56;94980.09;;;0.31;67.83
16793;BME280;8513;42.662;23.350;2023-12-20T05:06:21;94991.94;;;0.35;67.87
16793;BME280;8513;42.662;23.350;2023-12-20T05:08:47;94991.53;;;0.27;67.83
16793;BME280;8513;42.662;23.350;2023-12-20T05:11:12;94990.81;;;0.25;67.95
16793;BME280;8513;42.662;23.350;2023-12-20T05:13:40;94993.84;;;0.17;67.86
16793;BME280;8513;42.662;23.350;2023-12-20T05:16:05;94996.59;;;0.14;67.40
16793;BME280;8513;42.662;23.350;2023-12-20T05:18:31;94989.72;;;-0.02;67.13
16793;BME280;8513;42.662;23.350;2023-12-20T05:20:56;94982.41;;;-0.09;67.21
16793;BME280;8513;42.662;23.350;2023-12-20T05:23:22;94989.78;;;-0.17;67.11
16793;BME280;8513;42.662;23.350;2023-12-20T05:25:47;94986.75;;;-0.10;67.42
16793;BME280;8513;42.662;23.350;2023-12-20T05:28:14;94974.00;;;-0.13;67.46
16793;BME280;8513;42.662;23.350;2023-12-20T05:30:40;94966.50;;;-0.17;67.81
16793;BME280;8513;42.662;23.350;2023-12-20T05:33:05;94978.78;;;-0.21;67.67
16793;BME280;8513;42.662;23.350;2023-12-20T05:35:31;94972.47;;;-0.31;68.02
16793;BME280;8513;42.662;23.350;2023-12-20T05:37:56;94973.44;;;-0.18;67.97
16793;BME280;8513;42.662;23.350;2023-12-20T05:40:21;94971.75;;;-0.19;68.06
16793;BME280;8513;42.662;23.350;2023-12-20T05:42:47;94982.09;;;-0.19;68.12
16793;BME280;8513;42.662;23.350;2023-12-20T05:45:14;94969.97;;;-0.33;68.14
16793;BME280;8513;42.662;23.350;2023-12-20T05:47:40;94961.06;;;-0.43;68.63
16793;BME280;8513;42.662;23.350;2023-12-20T05:50:06;94966.38;;;-0.30;68.47
16793;BME280;8513;42.662;23.350;2023-12-20T05:52:31;94964.25;;;-0.54;69.15
16793;BME280;8513;42.662;23.350;2023-12-20T05:54:57;94964.72;;;-0.31;68.96
16793;BME280;8513;42.662;23.350;2023-12-20T05:57:26;94970.06;;;-0.34;69.41
16793;BME280;8513;42.662;23.350;2023-12-20T05:59:51;94964.66;;;-0.46;69.47
16793;BME280;8513;42.662;23.350;2023-12-20T06:02:17;94957.59;;;-0.42;69.82
16793;BME280;8513;42.662;23.350;2023-12-20T06:04:42;94947.31;;;-0.43;70.17
16793;BME280;8513;42.662;23.350;2023-12-20T06:07:11;94952.31;;;-0.40;70.01
16793;BME280;8513;42.662;23.350;2023-12-20T06:09:37;94959.44;;;-0.30;70.39
16793;BME280;8513;42.662;23.350;2023-12-20T06:12:02;94946.91;;;-0.36;70.03
16793;BME280;8513;42.662;23.350;2023-12-20T06:14:28;94951.81;;;-0.31;70.24
16793;BME280;8513;42.662;23.350;2023-12-20T06:16:53;94953.81;;;-0.36;70.84
16793;BME280;8513;42.662;23.350;2023-12-20T06:19:18;94959.44;;;-0.30;70.13
16793;BME280;8513;42.662;23.350;2023-12-20T06:21:44;94960.31;;;-0.29;70.24
16793;BME280;8513;42.662;23.350;2023-12-20T06:24:09;94968.00;;;-0.13;70.17
16793;BME280;8513;42.662;23.350;2023-12-20T06:26:35;94962.97;;;-0.31;70.39
16793;BME280;8513;42.662;23.350;2023-12-20T06:29:00;94961.88;;;-0.27;70.66
16793;BME280;8513;42.662;23.350;2023-12-20T06:31:26;94963.22;;;-0.35;70.80
16793;BME280;8513;42.662;23.350;2023-12-20T06:33:51;94960.41;;;-0.16;70.24
16793;BME280;8513;42.662;23.350;2023-12-20T06:36:26;94955.88;;;-0.27;70.56
16793;BME280;8513;42.662;23.350;2023-12-20T06:38:52;94965.19;;;-0.25;70.51
16793;BME280;8513;42.662;23.350;2023-12-20T06:41:18;94961.09;;;-0.13;70.42
16793;BME280;8513;42.662;23.350;2023-12-20T06:43:43;94957.56;;;-0.12;70.17
16793;BME280;8513;42.662;23.350;2023-12-20T06:46:09;94947.06;;;-0.09;70.03
16793;BME280;8513;42.662;23.350;2023-12-20T06:48:35;94936.38;;;-0.03;69.91
16793;BME280;8513;42.662;23.350;2023-12-20T06:51:01;94934.94;;;-0.08;70.05
16793;BME280;8513;42.662;23.350;2023-12-20T06:53:29;94936.72;;;-0.09;70.42
16793;BME280;8513;42.662;23.350;2023-12-20T06:55:55;94940.50;;;-0.14;70.67
16793;BME280;8513;42.662;23.350;2023-12-20T06:58:24;94939.50;;;0.03;70.21
16793;BME280;8513;42.662;23.350;2023-12-20T07:00:50;94941.25;;;0.02;70.44
16793;BME280;8513;42.662;23.350;2023-12-20T07:03:15;94937.03;;;0.15;69.91
16793;BME280;8513;42.662;23.350;2023-12-20T07:05:41;94926.41;;;0.20;70.16
16793;BME280;8513;42.662;23.350;2023-12-20T07:08:07;94935.19;;;0.17;70.25
16793;BME280;8513;42.662;23.350;2023-12-20T07:10:32;94911.63;;;0.36;69.67
16793;BME280;8513;42.662;23.350;2023-12-20T07:12:58;94917.81;;;0.34;69.94
16793;BME280;8513;42.662;23.350;2023-12-20T07:15:23;94918.75;;;0.33;69.92
16793;BME280;8513;42.662;23.350;2023-12-20T07:17:49;94907.38;;;0.50;69.55
16793;BME280;8513;42.662;23.350;2023-12-20T07:20:14;94906.94;;;0.43;69.15
16793;BME280;8513;42.662;23.350;2023-12-20T07:22:40;94915.22;;;0.48;68.76
16793;BME280;8513;42.662;23.350;2023-12-20T07:25:06;94905.53;;;0.37;68.86
16793;BME280;8513;42.662;23.350;2023-12-20T07:27:31;94905.97;;;0.58;68.55
16793;BME280;8513;42.662;23.350;2023-12-20T07:29:57;94893.25;;;0.70;68.47
16793;BME280;8513;42.662;23.350;2023-12-20T07:32:22;94897.47;;;0.71;67.92
16793;BME280;8513;42.662;23.350;2023-12-20T07:34:48;94901.16;;;0.81;68.46
16793;BME280;8513;42.662;23.350;2023-12-20T07:37:13;94902.88;;;0.95;67.42
16793;BME280;8513;42.662;23.350;2023-12-20T07:39:42;94906.84;;;1.27;67.69
16793;BME280;8513;42.662;23.350;2023-12-20T07:42:08;94895.06;;;1.09;67.72
16793;BME280;8513;42.662;23.350;2023-12-20T07:44:34;94908.84;;;1.37;67.40
16793;BME280;8513;42.662;23.350;2023-12-20T07:47:01;94901.41;;;0.91;68.12
16793;BME280;8513;42.662;23.350;2023-12-20T07:49:26;94904.56;;;0.81;69.32
16793;BME280;8513;42.662;23.350;2023-12-20T07:51:52;94891.53;;;0.83;69.06
16793;BME280;8513;42.662;23.350;2023-12-20T07:54:17;94888.78;;;0.99;68.76
16793;BME280;8513;42.662;23.350;2023-12-20T07:56:43;94887.09;;;1.12;68.44
16793;BME280;8513;42.662;23.350;2023-12-20T07:59:09;94900.63;;;1.03;68.94
16793;BME280;8513;42.662;23.350;2023-12-20T08:01:34;94889.31;;;1.18;68.92
16793;BME280;8513;42.662;23.350;2023-12-20T08:03:59;94888.72;;;1.27;68.50
16793;BME280;8513;42.662;23.350;2023-12-20T08:06:25;94888.00;;;1.38;68.09
16793;BME280;8513;42.662;23.350;2023-12-20T08:08:50;94896.94;;;1.47;68.01
16793;BME280;8513;42.662;23.350;2023-12-20T08:11:16;94883.16;;;1.46;67.77
16793;BME280;8513;42.662;23.350;2023-12-20T08:13:41;94876.53;;;1.42;68.14
16793;BME280;8513;42.662;23.350;2023-12-20T08:16:06;94884.19;;;1.44;68.49
16793;BME280;8513;42.662;23.350;2023-12-20T08:18:32;94872.91;;;1.58;68.26
16793;BME280;8513;42.662;23.350;2023-12-20T08:20:57;94874.69;;;1.57;68.38
16793;BME280;8513;42.662;23.350;2023-12-20T08:23:23;94882.66;;;1.54;69.19
16793;BME280;8513;42.662;23.350;2023-12-20T08:25:48;94872.84;;;1.72;68.74
16793;BME280;8513;42.662;23.350;2023-12-20T08:28:14;94876.25;;;1.60;69.22
16793;BME280;8513;42.662;23.350;2023-12-20T08:30:40;94861.56;;;1.86;68.19
16793;BME280;8513;42.662;23.350;2023-12-20T08:33:06;94875.84;;;1.79;68.72
16793;BME280;8513;42.662;23.350;2023-12-20T08:35:36;94850.69;;;1.93;68.64
16793;BME280;8513;42.662;23.350;2023-12-20T08:38:02;94838.22;;;1.86;68.39
16793;BME280;8513;42.662;23.350;2023-12-20T08:40:27;94850.06;;;1.90;68.75
16793;BME280;8513;42.662;23.350;2023-12-20T08:42:52;94844.34;;;1.85;68.77
16793;BME280;8513;42.662;23.350;2023-12-20T08:45:18;94832.22;;;1.72;68.73
16793;BME280;8513;42.662;23.350;2023-12-20T08:47:43;94854.41;;;1.76;69.37
16793;BME280;8513;42.662;23.350;2023-12-20T08:50:10;94818.94;;;1.90;68.13
16793;BME280;8513;42.662;23.350;2023-12-20T08:52:36;94834.69;;;1.61;69.58
16793;BME280;8513;42.662;23.350;2023-12-20T08:55:01;94829.72;;;1.58;70.53
16793;BME280;8513;42.662;23.350;2023-12-20T08:57:26;94846.63;;;1.76;69.80
16793;BME280;8513;42.662;23.350;2023-12-20T08:59:52;94828.06;;;1.83;70.17
16793;BME280;8513;42.662;23.350;2023-12-20T09:02:17;94825.66;;;1.92;69.83
16793;BME280;8513;42.662;23.350;2023-12-20T09:04:43;94817.06;;;2.05;70.03
16793;BME280;8513;42.662;23.350;2023-12-20T09:07:28;94819.88;;;2.14;69.39
16793;BME280;8513;42.662;23.350;2023-12-20T09:09:55;94809.66;;;2.24;69.39
16793;BME280;8513;42.662;23.350;2023-12-20T09:12:21;94797.56;;;2.12;69.07
16793;BME280;8513;42.662;23.350;2023-12-20T09:14:47;94777.31;;;2.17;69.05
16793;BME280;8513;42.662;23.350;2023-12-20T09:17:13;94777.41;;;2.15;69.26
16793;BME280;8513;42.662;23.350;2023-12-20T09:19:38;94759.19;;;2.04;69.15
16793;BME280;8513;42.662;23.350;2023-12-20T09:22:04;94772.66;;;2.09;69.34
16793;BME280;8513;42.662;23.350;2023-12-20T09:24:30;94755.09;;;2.13;69.08
16793;BME280;8513;42.662;23.350;2023-12-20T09:26:56;94750.94;;;2.23;68.78
16793;BME280;8513;42.662;23.350;2023-12-20T09:29:21;94750.22;;;2.21;69.21
16793;BME280;8513;42.662;23.350;2023-12-20T09:31:47;94750.50;;;2.29;69.42
16793;BME280;8513;42.662;23.350;2023-12-20T09:34:15;94735.06;;;2.28;69.35
16793;BME280;8513;42.662;23.350;2023-12-20T09:36:41;94746.03;;;2.31;69.83
16793;BME280;8513;42.662;23.350;2023-12-20T09:39:12;94733.38;;;2.27;69.46
16793;BME280;8513;42.662;23.350;2023-12-20T09:41:43;94728.88;;;2.41;69.55
16793;BME280;8513;42.662;23.350;2023-12-20T09:44:13;94723.41;;;2.33;69.63
16793;BME280;8513;42.662;23.350;2023-12-20T09:46:43;94723.44;;;2.57;69.76
16793;BME280;8513;42.662;23.350;2023-12-20T09:49:10;94723.91;;;2.38;70.07
16793;BME280;8513;42.662;23.350;2023-12-20T09:51:36;94720.56;;;2.49;70.19
16793;BME280;8513;42.662;23.350;2023-12-20T09:54:03;94710.41;;;2.46;69.76
16793;BME280;8513;42.662;23.350;2023-12-20T09:56:29;94699.00;;;2.60;69.57
16793;BME280;8513;42.662;23.350;2023-12-20T09:58:55;94703.75;;;2.66;69.25
16793;BME280;8513;42.662;23.350;2023-12-20T10:01:21;94694.19;;;2.67;69.05
16793;BME280;8513;42.662;23.350;2023-12-20T10:03:47;94696.47;;;2.71;69.36
16793;BME280;8513;42.662;23.350;2023-12-20T10:06:13;94695.56;;;3.19;68.32
16793;BME280;8513;42.662;23.350;2023-12-20T10:08:39;94691.09;;;3.54;67.23
16793;BME280;8513;42.662;23.350;2023-12-20T10:11:05;94677.88;;;3.58;66.39
16793;BME280;8513;42.662;23.350;2023-12-20T10:13:30;94655.41;;;3.68;66.01
16793;BME280;8513;42.662;23.350;2023-12-20T10:15:56;94672.66;;;3.91;65.05
16793;BME280;8513;42.662;23.350;2023-12-20T10:18:22;94664.63;;;3.61;66.38
16793;BME280;8513;42.662;23.350;2023-12-20T10:20:48;94660.63;;;3.68;65.66
16793;BME280;8513;42.662;23.350;2023-12-20T10:23:15;94647.84;;;3.98;65.18
16793;BME280;8513;42.662;23.350;2023-12-20T10:25:41;94648.06;;;4.07;64.44
16793;BME280;8513;42.662;23.350;2023-12-20T10:28:14;94647.16;;;3.85;65.31
16793;BME280;8513;42.662;23.350;2023-12-20T10:30:40;94636.00;;;3.94;65.02
16793;BME280;8513;42.662;23.350;2023-12-20T10:33:07;94637.91;;;4.04;64.61
16793;BME280;8513;42.662;23.350;2023-12-20T10:35:34;94640.63;;;3.68;66.11
16793;BME280;8513;42.662;23.350;2023-12-20T10:38:02;94641.22;;;3.94;66.08
16793;BME280;8513;42.662;23.350;2023-12-20T10:40:29;94635.31;;;4.36;64.76
16793;BME280;8513;42.662;23.350;2023-12-20T10:42:55;94609.69;;;4.52;63.66
16793;BME280;8513;42.662;23.350;2023-12-20T10:45:22;94609.06;;;4.60;64.02
16793;BME280;8513;42.662;23.350;2023-12-20T10:47:49;94604.91;;;4.90;63.26
16793;BME280;8513;42.662;23.350;2023-12-20T10:50:15;94603.53;;;5.16;62.21
16793;BME280;8513;42.662;23.350;2023-12-20T10:52:41;94610.00;;;5.52;60.36
16793;BME280;8513;42.662;23.350;2023-12-20T10:55:08;94609.50;;;5.07;61.82
16793;BME280;8513;42.662;23.350;2023-12-20T10:57:36;94589.63;;;5.06;61.47
16793;BME280;8513;42.662;23.350;2023-12-20T11:00:02;94595.38;;;4.79;63.03
16793;BME280;8513;42.662;23.350;2023-12-20T11:02:33;94590.06;;;4.69;63.20
16793;BME280;8513;42.662;23.350;2023-12-20T11:05:36;94577.50;;;4.53;63.77
16793;BME280;8513;42.662;23.350;2023-12-20T11:08:10;94576.63;;;4.32;64.33
16793;BME280;8513;42.662;23.350;2023-12-20T11:14:02;94577.09;;;4.05;65.48
16793;BME280;8513;42.662;23.350;2023-12-20T11:16:31;94563.97;;;3.95;65.88
16793;BME280;8513;42.662;23.350;2023-12-20T11:18:57;94567.94;;;3.78;66.32
16793;BME280;8513;42.662;23.350;2023-12-20T11:21:22;94550.84;;;3.64;67.01
16793;BME280;8513;42.662;23.350;2023-12-20T11:23:48;94539.38;;;3.67;66.96
16793;BME280;8513;42.662;23.350;2023-12-20T11:26:16;94560.63;;;3.72;67.28
16793;BME280;8513;42.662;23.350;2023-12-20T11:28:42;94545.13;;;3.70;67.39
16793;BME280;8513;42.662;23.350;2023-12-20T11:31:08;94535.44;;;3.72;67.34
16793;BME280;8513;42.662;23.350;2023-12-20T11:33:37;94523.44;;;3.92;67.16
16793;BME280;8513;42.662;23.350;2023-12-20T11:36:03;94516.22;;;3.96;66.49
16793;BME280;8513;42.662;23.350;2023-12-20T11:38:36;94512.97;;;3.83;67.00
16793;BME280;8513;42.662;23.350;2023-12-20T11:41:05;94510.69;;;3.89;67.34
16793;BME280;8513;42.662;23.350;2023-12-20T11:43:35;94513.66;;;3.85;67.53
16793;BME280;8513;42.662;23.350;2023-12-20T11:46:08;94500.50;;;3.97;66.77
16793;BME280;8513;42.662;23.350;2023-12-20T11:48:36;94503.78;;;4.00;67.13
16793;BME280;8513;42.662;23.350;2023-12-20T11:51:02;94493.03;;;4.25;66.62
16793;BME280;8513;42.662;23.350;2023-12-20T11:53:29;94491.50;;;4.43;66.21
16793;BME280;8513;42.662;23.350;2023-12-20T11:55:56;94487.16;;;4.75;65.38
16793;BME280;8513;42.662;23.350;2023-12-20T11:58:21;94475.19;;;4.93;64.77
16793;BME280;8513;42.662;23.350;2023-12-20T12:00:49;94477.44;;;5.07;64.36
16793;BME280;8513;42.662;23.350;2023-12-20T12:03:14;94456.22;;;5.22;63.81
16793;BME280;8513;42.662;23.350;2023-12-20T12:05:40;94455.22;;;5.53;63.25
16793;BME280;8513;42.662;23.350;2023-12-20T12:08:06;94439.00;;;5.60;62.94
16793;BME280;8513;42.662;23.350;2023-12-20T12:10:33;94442.59;;;5.68;62.61
16793;BME280;8513;42.662;23.350;2023-12-20T12:12:59;94437.13;;;5.91;62.01
16793;BME280;8513;42.662;23.350;2023-12-20T12:15:25;94436.72;;;5.95;61.75
16793;BME280;8513;42.662;23.350;2023-12-20T12:17:54;94437.41;;;5.97;61.44
16793;BME280;8513;42.662;23.350;2023-12-20T12:20:20;94427.78;;;5.98;61.19
16793;BME280;8513;42.662;23.350;2023-12-20T12:22:45;94423.78;;;6.04;61.41
16793;BME280;8513;42.662;23.350;2023-12-20T12:25:16;94429.72;;;6.06;60.92
16793;BME280;8513;42.662;23.350;2023-12-20T12:27:42;94421.97;;;6.33;60.65
16793;BME280;8513;42.662;23.350;2023-12-20T12:30:08;94422.56;;;6.08;61.26
16793;BME280;8513;42.662;23.350;2023-12-20T12:32:34;94412.94;;;6.08;61.21
16793;BME280;8513;42.662;23.350;2023-12-20T12:35:03;94413.88;;;6.36;61.02
16793;BME280;8513;42.662;23.350;2023-12-20T12:37:29;94415.28;;;6.68;59.85
16793;BME280;8513;42.662;23.350;2023-12-20T12:39:54;94419.16;;;6.64;59.71
16793;BME280;8513;42.662;23.350;2023-12-20T12:42:20;94401.50;;;6.76;59.38
16793;BME280;8513;42.662;23.350;2023-12-20T12:44:46;94406.81;;;6.47;60.40
16793;BME280;8513;42.662;23.350;2023-12-20T12:47:12;94403.34;;;5.99;60.67
16793;BME280;8513;42.662;23.350;2023-12-20T12:49:40;94405.22;;;5.58;63.15
16793;BME280;8513;42.662;23.350;2023-12-20T12:52:05;94408.81;;;5.57;63.35
16793;BME280;8513;42.662;23.350;2023-12-20T12:54:31;94398.53;;;5.65;63.11
16793;BME280;8513;42.662;23.350;2023-12-20T12:56:56;94405.91;;;5.80;62.51
16793;BME280;8513;42.662;23.350;2023-12-20T12:59:23;94401.81;;;6.06;61.17
16793;BME280;8513;42.662;23.350;2023-12-20T13:01:48;94406.47;;;5.64;62.66
16793;BME280;8513;42.662;23.350;2023-12-20T13:04:13;94398.09;;;5.60;63.13
16793;BME280;8513;42.662;23.350;2023-12-20T13:06:39;94408.25;;;5.44;63.55